Time;durP1;ratioP1;P1;durP2;ratioP2;P2;SDS_P1;SDS_P2;PMS_P1;PMS_P2;Temp;Humidity;BMP_temperature;BMP_pressure;BME280_temperature;BME280_humidity;BME280_pressure;Samples;Min_cycle;Max_cycle;Signal;HPM_P1;HPM_P2
2022/06/18 00:00:43;;;;;;;;;;;23.70;79.20;;;;;;4923085;29;19927;-85
2022/06/18 00:03:12;;;;;;;;;;;23.70;78.70;;;;;;4922910;29;19931;-85
2022/06/18 00:05:42;;;;;;;;;;;23.70;79.70;;;;;;4916893;29;19927;-85
2022/06/18 00:08:12;;;;;;;;;;;23.60;80.00;;;;;;4913519;29;20311;-86
2022/06/18 00:10:41;;;;;;;;;;;23.60;79.70;;;;;;4921188;29;19934;-83
2022/06/18 00:15:58;;;;;;;;;;;23.50;80.00;;;;;;4918559;29;20593;-85
2022/06/18 00:18:27;;;;;;;;;;;23.50;80.90;;;;;;4916589;29;19953;-86
2022/06/18 00:20:54;;;;;;;;;;;23.40;80.20;;;;;;4909642;29;19935;-85
2022/06/18 00:23:22;;;;;;;;;;;23.40;80.60;;;;;;4920880;29;19927;-85
2022/06/18 00:25:51;;;;;;;;;;;23.40;80.90;;;;;;4922804;29;19938;-85
2022/06/18 00:28:20;;;;;;;;;;;23.40;80.80;;;;;;4923047;29;19938;-85
2022/06/18 00:30:49;;;;;;;;;;;23.30;81.10;;;;;;4904181;29;20437;-85
2022/06/18 00:33:17;;;;;;;;;;;23.40;81.50;;;;;;4920468;29;20273;-85
2022/06/18 00:35:45;;;;;;;;;;;23.30;82.10;;;;;;4907684;29;19927;-85
2022/06/18 00:38:24;;;;;;;;;;;23.30;81.50;;;;;;4910626;29;19938;-85
2022/06/18 00:40:52;;;;;;;;;;;23.20;81.60;;;;;;4894161;29;19934;-85
2022/06/18 00:43:27;;;;;;;;;;;23.20;81.60;;;;;;4929245;29;20196;-85
2022/06/18 00:45:58;;;;;;;;;;;23.20;82.00;;;;;;4924208;29;19930;-86
2022/06/18 00:48:38;;;;;;;;;;;23.10;82.40;;;;;;4936991;29;19915;-85
2022/06/18 00:51:11;;;;;;;;;;;23.10;82.20;;;;;;4913750;29;19939;-85
2022/06/18 00:54:01;;;;;;;;;;;23.00;82.70;;;;;;4908535;29;19927;-85
2022/06/18 00:56:53;;;;;;;;;;;23.00;82.60;;;;;;4890931;29;19935;-85
2022/06/18 00:59:38;;;;;;;;;;;22.90;82.90;;;;;;4874063;29;20450;-85
2022/06/18 01:02:10;;;;;;;;;;;22.90;82.80;;;;;;4904706;29;19931;-86
2022/06/18 01:04:39;;;;;;;;;;;22.80;83.30;;;;;;4920259;29;19938;-85
2022/06/18 01:07:21;;;;;;;;;;;22.80;83.70;;;;;;4915017;29;19931;-85
2022/06/18 01:09:50;;;;;;;;;;;22.80;83.40;;;;;;4911780;29;19931;-85
2022/06/18 01:12:18;;;;;;;;;;;22.70;83.60;;;;;;4920426;29;19927;-84
2022/06/18 01:15:09;;;;;;;;;;;22.70;83.40;;;;;;5104650;27;19920;-80
2022/06/18 01:17:43;;;;;;;;;;;22.70;83.50;;;;;;5088419;28;19925;-79
2022/06/18 01:20:12;;;;;;;;;;;22.60;83.90;;;;;;5087136;28;19924;-80
2022/06/18 01:22:41;;;;;;;;;;;22.60;83.90;;;;;;5098014;28;19935;-80
2022/06/18 01:25:09;;;;;;;;;;;22.60;85.10;;;;;;5098327;28;19929;-80
2022/06/18 01:27:40;;;;;;;;;;;22.50;84.80;;;;;;5080653;28;19924;-80
2022/06/18 01:30:22;;;;;;;;;;;22.50;85.20;;;;;;5081853;28;20372;-80
2022/06/18 01:32:54;;;;;;;;;;;22.40;85.20;;;;;;5113679;28;20297;-80
2022/06/18 01:35:26;;;;;;;;;;;22.40;85.60;;;;;;5081039;28;19935;-79
2022/06/18 01:38:02;;;;;;;;;;;22.30;85.20;;;;;;5081000;28;19936;-79
2022/06/18 01:40:43;;;;;;;;;;;22.30;85.00;;;;;;5064795;28;19925;-80
2022/06/18 01:43:16;;;;;;;;;;;22.30;86.10;;;;;;5080266;28;19925;-81
2022/06/18 01:45:46;;;;;;;;;;;22.20;86.30;;;;;;5098023;28;19935;-79
2022/06/18 01:48:20;;;;;;;;;;;22.20;86.50;;;;;;5062400;28;19936;-80
2022/06/18 01:50:58;;;;;;;;;;;22.20;86.20;;;;;;5098178;28;19931;-80
2022/06/18 01:53:29;;;;;;;;;;;22.10;87.30;;;;;;5082136;28;19924;-80
2022/06/18 01:56:12;;;;;;;;;;;22.10;86.60;;;;;;5089303;28;19931;-80
2022/06/18 01:58:43;;;;;;;;;;;21.10;86.50;;;;;;5065816;28;19925;-80
2022/06/18 02:01:21;;;;;;;;;;;22.00;87.00;;;;;;5067272;28;19931;-79
2022/06/18 02:03:55;;;;;;;;;;;22.00;87.70;;;;;;5082538;28;19924;-80
2022/06/18 02:06:24;;;;;;;;;;;22.10;87.70;;;;;;5083320;28;19925;-80
2022/06/18 02:08:54;;;;;;;;;;;22.00;88.20;;;;;;5082443;28;19925;-80
2022/06/18 02:11:23;;;;;;;;;;;21.90;87.60;;;;;;5081293;28;19928;-80
2022/06/18 02:13:59;;;;;;;;;;;21.90;88.00;;;;;;5049390;28;19931;-81
2022/06/18 02:16:30;;;;;;;;;;;21.90;87.90;;;;;;5118200;28;19924;-79
2022/06/18 02:19:02;;;;;;;;;;;21.90;88.00;;;;;;5098045;28;19940;-80
2022/06/18 02:21:31;;;;;;;;;;;22.00;88.00;;;;;;5078352;28;19924;-81
2022/06/18 02:23:59;;;;;;;;;;;22.00;88.40;;;;;;5065585;28;19939;-81
2022/06/18 02:26:28;;;;;;;;;;;22.00;87.90;;;;;;5067902;28;19933;-79
2022/06/18 02:28:58;;;;;;;;;;;21.90;88.00;;;;;;5066513;28;19940;-79
2022/06/18 02:31:28;;;;;;;;;;;22.00;88.80;;;;;;5049631;28;20335;-79
2022/06/18 02:34:00;;;;;;;;;;;21.90;88.80;;;;;;5071917;28;19929;-80
2022/06/18 02:36:30;;;;;;;;;;;21.90;88.40;;;;;;5049686;28;19943;-79
2022/06/18 02:39:01;;;;;;;;;;;21.90;88.80;;;;;;5068921;28;19925;-80
2022/06/18 02:41:28;;;;;;;;;;;21.80;88.70;;;;;;5077516;28;19924;-80
2022/06/18 02:43:57;;;;;;;;;;;21.60;89.10;;;;;;5069180;28;19929;-80
2022/06/18 02:46:26;;;;;;;;;;;21.60;89.30;;;;;;5068812;28;20269;-80
2022/06/18 02:48:56;;;;;;;;;;;21.60;90.10;;;;;;5072032;28;19931;-81
2022/06/18 02:51:26;;;;;;;;;;;21.50;89.60;;;;;;5069844;28;19925;-80
2022/06/18 02:53:54;;;;;;;;;;;21.50;89.80;;;;;;5070020;28;19925;-80
2022/06/18 02:56:24;;;;;;;;;;;21.40;90.10;;;;;;5057841;28;19920;-79
2022/06/18 02:58:52;;;;;;;;;;;21.40;90.60;;;;;;5058760;28;19925;-79
2022/06/18 03:01:27;;;;;;;;;;;21.30;90.10;;;;;;5072195;28;19920;-80
2022/06/18 03:03:56;;;;;;;;;;;21.30;90.20;;;;;;5076164;28;20293;-79
2022/06/18 03:06:31;;;;;;;;;;;21.30;90.20;;;;;;5069388;28;19928;-80
2022/06/18 03:08:59;;;;;;;;;;;21.30;90.20;;;;;;5067102;28;19925;-81
2022/06/18 03:14:16;;;;;;;;;;;21.20;90.20;;;;;;5068479;28;20644;-80
2022/06/18 03:16:44;;;;;;;;;;;21.20;90.60;;;;;;5050499;28;19931;-81
2022/06/18 03:19:23;;;;;;;;;;;21.10;90.60;;;;;;5072738;28;19925;-79
2022/06/18 03:21:55;;;;;;;;;;;21.00;90.80;;;;;;5067376;28;20024;-80
2022/06/18 03:24:23;;;;;;;;;;;21.00;90.70;;;;;;5100845;28;19928;-80
2022/06/18 03:26:53;;;;;;;;;;;21.00;90.80;;;;;;5067611;28;19924;-79
2022/06/18 03:29:21;;;;;;;;;;;21.00;90.80;;;;;;5067498;28;19931;-80
2022/06/18 03:31:50;;;;;;;;;;;21.00;90.80;;;;;;5065285;28;19936;-80
2022/06/18 03:34:18;;;;;;;;;;;20.90;90.80;;;;;;5030651;28;19929;-81
2022/06/18 03:36:46;;;;;;;;;;;20.90;91.00;;;;;;5067203;28;19925;-80
2022/06/18 03:39:15;;;;;;;;;;;19.30;90.50;;;;;;5068857;28;20405;-79
2022/06/18 03:41:43;;;;;;;;;;;20.90;90.70;;;;;;5064255;28;19929;-79
2022/06/18 03:44:11;;;;;;;;;;;20.90;91.00;;;;;;5069323;28;19931;-81
2022/06/18 03:46:40;;;;;;;;;;;20.90;91.30;;;;;;5058210;28;19925;-79
2022/06/18 03:49:19;;;;;;;;;;;20.90;91.10;;;;;;5058963;28;19913;-79
2022/06/18 03:51:47;;;;;;;;;;;20.90;91.20;;;;;;5068902;28;19941;-79
2022/06/18 03:54:15;;;;;;;;;;;20.90;91.30;;;;;;5101282;28;19931;-80
2022/06/18 03:56:43;;;;;;;;;;;20.80;91.20;;;;;;5068644;28;20384;-80
2022/06/18 03:59:11;;;;;;;;;;;20.70;91.30;;;;;;5047449;28;19935;-79
2022/06/18 04:01:41;;;;;;;;;;;20.70;91.50;;;;;;5059838;28;19928;-80
2022/06/18 04:04:12;;;;;;;;;;;21.40;91.60;;;;;;5051972;28;19931;-80
2022/06/18 04:06:44;;;;;;;;;;;20.70;91.50;;;;;;5068670;28;19925;-78
2022/06/18 04:09:37;;;;;;;;;;;20.60;91.80;;;;;;5068833;28;19928;-79
2022/06/18 04:12:09;;;;;;;;;;;20.60;91.70;;;;;;5090309;28;19925;-79
2022/06/18 04:15:14;;;;;;;;;;;20.50;91.80;;;;;;5046461;28;19933;-79
2022/06/18 04:18:04;;;;;;;;;;;21.20;92.20;;;;;;5063349;28;19935;-79
2022/06/18 04:20:35;;;;;;;;;;;20.50;92.30;;;;;;5058182;28;19924;-80
2022/06/18 04:23:05;;;;;;;;;;;20.50;92.30;;;;;;5066719;28;19955;-79
2022/06/18 04:25:38;;;;;;;;;;;20.50;92.50;;;;;;5066244;28;19925;-79
2022/06/18 04:28:08;;;;;;;;;;;20.40;92.70;;;;;;5050129;28;19925;-79
2022/06/18 04:30:38;;;;;;;;;;;20.40;92.70;;;;;;5067537;28;19929;-81
2022/06/18 04:33:15;;;;;;;;;;;20.30;92.90;;;;;;5052281;28;19925;-79
2022/06/18 04:35:56;;;;;;;;;;;20.30;93.10;;;;;;5085874;28;19940;-79
2022/06/18 04:38:26;;;;;;;;;;;20.20;92.80;;;;;;5067100;28;19931;-79
2022/06/18 04:40:58;;;;;;;;;;;20.30;93.00;;;;;;5096804;28;19925;-79
2022/06/18 04:43:35;;;;;;;;;;;20.30;93.00;;;;;;5064941;28;19924;-80
2022/06/18 04:46:03;;;;;;;;;;;20.30;92.90;;;;;;5050181;28;19925;-81
2022/06/18 04:48:31;;;;;;;;;;;20.30;93.10;;;;;;5067328;28;19925;-80
2022/06/18 04:50:58;;;;;;;;;;;20.30;93.20;;;;;;5065916;28;20591;-80
2022/06/18 04:53:27;;;;;;;;;;;20.30;93.20;;;;;;5066223;28;20303;-80
2022/06/18 04:56:05;;;;;;;;;;;20.40;93.10;;;;;;5048805;28;19935;-80
2022/06/18 04:58:34;;;;;;;;;;;20.30;93.10;;;;;;5065613;28;19932;-80
2022/06/18 05:01:02;;;;;;;;;;;20.40;93.00;;;;;;5082757;28;19935;-80
2022/06/18 05:03:40;;;;;;;;;;;20.00;92.70;;;;;;5037595;28;19913;-80
2022/06/18 05:06:17;;;;;;;;;;;20.60;92.80;;;;;;5059641;28;19935;-80
2022/06/18 05:09:03;;;;;;;;;;;20.60;93.00;;;;;;5062753;28;20387;-79
2022/06/18 05:11:53;;;;;;;;;;;20.60;93.10;;;;;;5064760;28;19929;-79
2022/06/18 05:14:39;;;;;;;;;;;20.70;92.50;;;;;;5051926;28;19925;-79
2022/06/18 05:17:14;;;;;;;;;;;20.80;92.50;;;;;;5079376;28;19929;-80
2022/06/18 05:19:44;;;;;;;;;;;20.80;92.40;;;;;;5060659;28;19935;-78
2022/06/18 05:22:13;;;;;;;;;;;20.80;92.30;;;;;;5046794;28;19925;-80
2022/06/18 05:24:43;;;;;;;;;;;20.90;92.50;;;;;;5060765;28;19928;-79
2022/06/18 05:27:27;;;;;;;;;;;20.90;92.30;;;;;;5079320;28;19921;-79
2022/06/18 05:29:55;;;;;;;;;;;20.90;92.40;;;;;;5070749;28;19925;-79
2022/06/18 05:32:29;;;;;;;;;;;21.00;92.20;;;;;;5048720;28;19924;-79
2022/06/18 05:34:58;;;;;;;;;;;21.00;92.40;;;;;;5048121;28;19929;-79
2022/06/18 05:37:28;;;;;;;;;;;21.00;92.20;;;;;;5065238;28;20271;-80
2022/06/18 05:39:56;;;;;;;;;;;21.00;92.30;;;;;;5048939;28;19932;-80
2022/06/18 05:42:24;;;;;;;;;;;21.10;92.30;;;;;;5075228;28;19924;-80
2022/06/18 05:44:57;;;;;;;;;;;21.10;92.00;;;;;;5064660;28;19929;-79
2022/06/18 05:47:30;;;;;;;;;;;21.10;92.00;;;;;;5066507;28;19929;-79
2022/06/18 05:50:00;;;;;;;;;;;21.10;91.80;;;;;;5083415;28;19924;-80
2022/06/18 05:52:30;;;;;;;;;;;21.10;91.70;;;;;;5049727;28;19929;-79
2022/06/18 05:55:08;;;;;;;;;;;21.10;92.20;;;;;;5099264;28;19929;-78
2022/06/18 05:58:00;;;;;;;;;;;21.10;91.90;;;;;;5051957;28;19939;-78
2022/06/18 06:00:33;;;;;;;;;;;21.10;92.00;;;;;;5066620;28;19925;-79
2022/06/18 06:03:04;;;;;;;;;;;21.20;92.10;;;;;;5067715;28;19925;-79
2022/06/18 06:05:33;;;;;;;;;;;21.20;91.90;;;;;;5058897;28;19925;-80
2022/06/18 06:08:02;;;;;;;;;;;21.30;92.00;;;;;;5068319;28;19925;-81
2022/06/18 06:13:27;;;;;;;;;;;21.30;91.80;;;;;;5077509;28;19928;-79
2022/06/18 06:15:59;;;;;;;;;;;21.30;91.70;;;;;;5085187;28;19932;-79
2022/06/18 06:18:29;;;;;;;;;;;21.40;91.80;;;;;;5072422;28;19917;-80
2022/06/18 06:20:59;;;;;;;;;;;21.50;91.70;;;;;;5070852;28;19933;-79
2022/06/18 06:23:29;;;;;;;;;;;21.50;91.80;;;;;;5065432;28;19929;-80
2022/06/18 06:25:58;;;;;;;;;;;21.50;91.50;;;;;;5085977;28;19933;-80
2022/06/18 06:28:28;;;;;;;;;;;21.60;91.40;;;;;;5069424;28;19924;-80
2022/06/18 06:30:56;;;;;;;;;;;21.60;91.40;;;;;;5052704;28;19925;-79
2022/06/18 06:33:25;;;;;;;;;;;21.70;91.30;;;;;;5071130;28;19928;-79
2022/06/18 06:35:54;;;;;;;;;;;21.70;91.30;;;;;;5069673;28;19930;-80
2022/06/18 06:38:24;;;;;;;;;;;21.80;91.30;;;;;;5070661;28;19929;-80
2022/06/18 06:40:54;;;;;;;;;;;21.80;91.20;;;;;;5050258;28;19939;-80
2022/06/18 06:43:23;;;;;;;;;;;21.80;91.50;;;;;;5076867;28;19925;-81
2022/06/18 06:45:52;;;;;;;;;;;21.90;91.10;;;;;;5094603;28;19931;-80
2022/06/18 06:48:21;;;;;;;;;;;22.00;91.00;;;;;;5071664;28;20302;-79
2022/06/18 06:50:50;;;;;;;;;;;22.10;91.10;;;;;;5071793;28;19932;-80
2022/06/18 06:53:19;;;;;;;;;;;22.20;91.00;;;;;;5069678;28;19925;-80
2022/06/18 06:58:35;;;;;;;;;;;22.20;90.70;;;;;;5060852;28;20399;-81
2022/06/18 07:01:05;;;;;;;;;;;22.30;90.70;;;;;;5067890;28;20346;-80
2022/06/18 07:03:38;;;;;;;;;;;22.30;90.60;;;;;;5107561;28;19932;-82
2022/06/18 07:06:16;;;;;;;;;;;22.30;90.60;;;;;;5069844;28;19929;-80
2022/06/18 07:09:03;;;;;;;;;;;22.40;90.60;;;;;;5070488;28;19931;-79
2022/06/18 07:11:38;;;;;;;;;;;22.50;90.70;;;;;;5060088;28;19935;-81
2022/06/18 07:17:29;;;;;;;;;;;22.60;90.60;;;;;;5066345;28;19943;-79
2022/06/18 07:19:57;;;;;;;;;;;22.70;90.30;;;;;;5066314;28;19926;-80
2022/06/18 07:22:26;;;;;;;;;;;22.70;90.30;;;;;;5070717;28;19928;-81
2022/06/18 07:24:55;;;;;;;;;;;22.70;90.30;;;;;;5073836;28;19928;-80
2022/06/18 07:27:24;;;;;;;;;;;23.20;90.50;;;;;;5053886;28;19924;-80
2022/06/18 07:29:52;;;;;;;;;;;22.70;90.40;;;;;;5064397;28;19925;-80
2022/06/18 07:32:21;;;;;;;;;;;22.70;90.60;;;;;;5071833;28;19940;-80
2022/06/18 07:34:50;;;;;;;;;;;22.80;90.40;;;;;;5069266;28;19935;-82
2022/06/18 07:37:19;;;;;;;;;;;22.80;90.50;;;;;;5057750;28;19943;-80
2022/06/18 07:39:50;;;;;;;;;;;22.90;90.30;;;;;;5067273;28;19924;-79
2022/06/18 07:42:20;;;;;;;;;;;22.90;90.10;;;;;;5032492;28;19929;-82
2022/06/18 07:44:49;;;;;;;;;;;23.00;90.00;;;;;;5066296;28;19987;-81
2022/06/18 07:47:18;;;;;;;;;;;22.90;90.10;;;;;;5066159;28;19929;-80
2022/06/18 07:49:47;;;;;;;;;;;23.00;90.00;;;;;;5053460;28;19925;-81
2022/06/18 07:52:20;;;;;;;;;;;23.10;90.10;;;;;;5064809;28;19929;-82
2022/06/18 07:54:52;;;;;;;;;;;23.10;90.00;;;;;;5070716;22;19921;-83
2022/06/18 07:57:51;;;;;;;;;;;23.20;90.10;;;;;;4992458;28;19929;-86
2022/06/18 08:00:25;;;;;;;;;;;23.30;90.00;;;;;;5025851;28;19944;-84
2022/06/18 08:02:59;;;;;;;;;;;23.40;89.70;;;;;;4993832;28;20311;-83
2022/06/18 08:05:33;;;;;;;;;;;23.50;89.20;;;;;;5008779;28;19913;-83
2022/06/18 08:08:07;;;;;;;;;;;23.60;88.90;;;;;;5009636;28;19929;-83
2022/06/18 08:10:56;;;;;;;;;;;23.60;89.00;;;;;;4999263;28;19932;-85
2022/06/18 08:13:24;;;;;;;;;;;23.60;89.10;;;;;;4998826;28;19925;-83
2022/06/18 08:15:52;;;;;;;;;;;23.70;88.80;;;;;;5010460;28;19937;-83
2022/06/18 08:18:22;;;;;;;;;;;24.80;90.00;;;;;;5022680;28;19926;-83
2022/06/18 08:21:01;;;;;;;;;;;23.90;88.50;;;;;;5007099;28;19933;-84
2022/06/18 08:23:41;;;;;;;;;;;24.00;88.30;;;;;;5005802;28;19929;-84
2022/06/18 08:26:14;;;;;;;;;;;24.10;88.00;;;;;;5006176;28;19920;-84
2022/06/18 08:28:49;;;;;;;;;;;24.20;87.80;;;;;;5007162;28;19952;-84
2022/06/18 08:31:20;;;;;;;;;;;24.30;87.50;;;;;;5008831;28;19935;-84
2022/06/18 08:33:48;;;;;;;;;;;24.50;87.20;;;;;;4985067;28;19940;-84
2022/06/18 08:36:19;;;;;;;;;;;24.60;87.40;;;;;;4995545;28;19925;-84
2022/06/18 08:38:48;;;;;;;;;;;24.70;87.10;;;;;;4995832;28;20408;-85
2022/06/18 08:41:20;;;;;;;;;;;25.10;86.20;;;;;;4993767;28;20375;-84
2022/06/18 08:44:07;;;;;;;;;;;24.90;86.20;;;;;;4997019;28;19934;-85
2022/06/18 08:46:51;;;;;;;;;;;25.10;86.10;;;;;;4981321;28;19930;-85
2022/06/18 08:49:31;;;;;;;;;;;25.20;85.20;;;;;;4998391;28;20022;-84
2022/06/18 08:52:16;;;;;;;;;;;25.30;85.30;;;;;;4995742;28;19937;-85
2022/06/18 08:55:14;;;;;;;;;;;25.50;84.90;;;;;;4978065;28;19940;-85
2022/06/18 08:57:59;;;;;;;;;;;25.50;84.30;;;;;;4976850;28;19937;-84
2022/06/18 09:00:56;;;;;;;;;;;25.60;84.00;;;;;;4993968;28;19930;-83
2022/06/18 09:03:43;;;;;;;;;;;25.60;84.00;;;;;;4985554;28;20377;-84
2022/06/18 09:06:14;;;;;;;;;;;24.70;83.40;;;;;;4977713;28;19933;-85
2022/06/18 09:09:06;;;;;;;;;;;25.50;83.70;;;;;;4992028;28;19926;-84
2022/06/18 09:11:41;;;;;;;;;;;25.40;83.70;;;;;;4974597;28;19925;-84
2022/06/18 09:14:15;;;;;;;;;;;25.40;83.50;;;;;;4991501;28;19940;-84
2022/06/18 09:16:56;;;;;;;;;;;25.50;83.50;;;;;;4972661;28;19929;-84
2022/06/18 09:19:28;;;;;;;;;;;25.60;83.60;;;;;;4987046;28;19926;-84
2022/06/18 09:21:57;;;;;;;;;;;25.60;84.00;;;;;;4992234;28;19933;-85
2022/06/18 09:24:28;;;;;;;;;;;25.60;83.40;;;;;;4974284;28;19930;-84
2022/06/18 09:27:02;;;;;;;;;;;25.60;83.10;;;;;;4982832;28;19937;-83
2022/06/18 09:29:46;;;;;;;;;;;25.70;83.20;;;;;;5000426;28;19926;-86
2022/06/18 09:32:30;;;;;;;;;;;25.80;82.80;;;;;;4971327;28;19956;-85
2022/06/18 09:35:09;;;;;;;;;;;25.80;82.50;;;;;;4973722;28;19961;-85
2022/06/18 09:37:37;;;;;;;;;;;25.80;82.20;;;;;;4993073;28;19930;-84
2022/06/18 09:40:10;;;;;;;;;;;25.80;82.80;;;;;;4994615;28;19934;-85
2022/06/18 09:42:42;;;;;;;;;;;25.80;82.50;;;;;;4996207;28;19933;-85
2022/06/18 09:45:24;;;;;;;;;;;25.80;82.90;;;;;;4994686;28;20599;-85
2022/06/18 09:47:53;;;;;;;;;;;25.70;82.60;;;;;;4994971;28;19940;-84
2022/06/18 09:50:42;;;;;;;;;;;25.70;83.20;;;;;;4997787;28;20141;-84
2022/06/18 09:53:28;;;;;;;;;;;25.80;82.90;;;;;;4998876;28;19934;-84
2022/06/18 09:56:07;;;;;;;;;;;25.70;82.10;;;;;;5005957;28;19937;-85
2022/06/18 09:58:55;;;;;;;;;;;26.10;82.30;;;;;;5011032;28;19940;-85
2022/06/18 10:01:34;;;;;;;;;;;26.30;82.20;;;;;;4982876;28;19926;-84
2022/06/18 10:06:55;;;;;;;;;;;26.50;81.40;;;;;;4996857;28;19933;-84
2022/06/18 10:09:45;;;;;;;;;;;26.60;81.70;;;;;;4998370;28;19954;-85
2022/06/18 10:12:18;;;;;;;;;;;26.60;80.90;;;;;;4997394;28;19936;-85
2022/06/18 10:14:48;;;;;;;;;;;26.60;81.30;;;;;;4983950;28;19929;-85
2022/06/18 10:17:28;;;;;;;;;;;27.10;81.90;;;;;;4996545;28;19929;-85
2022/06/18 10:19:56;;;;;;;;;;;26.60;81.10;;;;;;4995748;28;19934;-85
2022/06/18 10:22:38;;;;;;;;;;;26.90;81.80;;;;;;4998513;28;19930;-85
2022/06/18 10:25:22;;;;;;;;;;;27.10;80.50;;;;;;4984393;28;19932;-85
2022/06/18 10:27:56;;;;;;;;;;;27.20;79.90;;;;;;4965178;28;19941;-85
2022/06/18 10:30:39;;;;;;;;;;;27.30;80.10;;;;;;4984035;28;19953;-85
2022/06/18 10:33:21;;;;;;;;;;;27.30;79.40;;;;;;5005556;28;19930;-85
2022/06/18 10:36:08;;;;;;;;;;;27.40;79.60;;;;;;4997636;28;19953;-84
2022/06/18 10:38:55;;;;;;;;;;;27.20;79.70;;;;;;4996088;28;19933;-85
2022/06/18 10:41:37;;;;;;;;;;;27.00;80.20;;;;;;4995800;28;19937;-84
2022/06/18 10:44:17;;;;;;;;;;;26.80;80.80;;;;;;4994055;28;19926;-84
2022/06/18 10:46:57;;;;;;;;;;;26.70;81.10;;;;;;4995006;28;19933;-83
2022/06/18 10:49:30;;;;;;;;;;;26.50;81.40;;;;;;4995871;28;20281;-84
2022/06/18 10:52:00;;;;;;;;;;;26.40;81.90;;;;;;4995304;28;19930;-84
2022/06/18 10:54:33;;;;;;;;;;;26.40;81.60;;;;;;4994260;28;19926;-84
2022/06/18 10:57:04;;;;;;;;;;;26.50;81.70;;;;;;4993380;28;19933;-84
2022/06/18 10:59:37;;;;;;;;;;;26.60;81.60;;;;;;4980406;28;19933;-84
2022/06/18 11:02:08;;;;;;;;;;;26.90;81.70;;;;;;4993465;28;19936;-84
2022/06/18 11:04:39;;;;;;;;;;;26.90;81.10;;;;;;4977053;28;19945;-84
2022/06/18 11:07:09;;;;;;;;;;;27.10;80.60;;;;;;4992165;28;19937;-84
2022/06/18 11:09:38;;;;;;;;;;;27.30;81.10;;;;;;4998664;28;19934;-84
2022/06/18 11:12:19;;;;;;;;;;;27.50;79.80;;;;;;4999006;28;19941;-86
2022/06/18 11:14:48;;;;;;;;;;;27.60;79.50;;;;;;5000471;28;19936;-84
2022/06/18 11:17:20;;;;;;;;;;;27.70;79.00;;;;;;4995401;28;19926;-84
2022/06/18 11:19:49;;;;;;;;;;;27.60;79.10;;;;;;4982358;28;20571;-84
2022/06/18 11:22:18;;;;;;;;;;;27.60;79.20;;;;;;4981688;28;20414;-85
2022/06/18 11:24:52;;;;;;;;;;;27.50;79.20;;;;;;4998112;28;19930;-84
2022/06/18 11:27:20;;;;;;;;;;;27.50;79.70;;;;;;4994651;28;19929;-85
2022/06/18 11:29:55;;;;;;;;;;;27.50;80.30;;;;;;4978795;28;19945;-85
2022/06/18 11:32:30;;;;;;;;;;;27.50;80.60;;;;;;4996333;28;19945;-85
2022/06/18 11:34:58;;;;;;;;;;;27.60;80.90;;;;;;4997477;28;20297;-86
2022/06/18 11:37:31;;;;;;;;;;;27.50;80.60;;;;;;4996149;28;19926;-86
2022/06/18 11:40:04;;;;;;;;;;;27.70;80.50;;;;;;4977361;28;20382;-86
2022/06/18 11:42:40;;;;;;;;;;;27.70;80.40;;;;;;5001145;28;19940;-86
2022/06/18 11:45:17;;;;;;;;;;;27.90;80.60;;;;;;4987879;28;19936;-86
2022/06/18 11:47:51;;;;;;;;;;;28.00;80.10;;;;;;5005340;28;19932;-86
2022/06/18 11:50:30;;;;;;;;;;;28.10;78.80;;;;;;4999039;28;19926;-86
2022/06/18 11:53:19;;;;;;;;;;;28.10;79.80;;;;;;4996623;28;19934;-84
2022/06/18 11:55:51;;;;;;;;;;;28.20;79.40;;;;;;4974185;28;19933;-85
2022/06/18 11:58:34;;;;;;;;;;;28.20;78.80;;;;;;4974947;28;19931;-85
2022/06/18 12:01:09;;;;;;;;;;;28.00;78.70;;;;;;4976731;28;20128;-84
2022/06/18 12:03:42;;;;;;;;;;;27.90;79.20;;;;;;4980870;28;19930;-85
2022/06/18 12:06:20;;;;;;;;;;;27.80;79.10;;;;;;4973815;28;20011;-86
2022/06/18 12:09:12;;;;;;;;;;;27.70;79.10;;;;;;4974108;28;19956;-84
2022/06/18 12:11:59;;;;;;;;;;;27.50;79.50;;;;;;4973651;28;19933;-84
2022/06/18 12:14:41;;;;;;;;;;;27.40;79.50;;;;;;4988661;28;19926;-85
2022/06/18 12:17:16;;;;;;;;;;;27.30;80.30;;;;;;4990263;28;19934;-85
2022/06/18 12:20:13;;;;;;;;;;;27.20;80.10;;;;;;4977206;28;19926;-84
2022/06/18 12:22:53;;;;;;;;;;;26.90;80.70;;;;;;4974663;28;20006;-84
2022/06/18 12:25:24;;;;;;;;;;;26.60;81.40;;;;;;4973400;28;19930;-84
2022/06/18 12:28:12;;;;;;;;;;;26.40;81.90;;;;;;4974455;28;19930;-84
2022/06/18 12:30:48;;;;;;;;;;;26.30;82.10;;;;;;4971029;28;19937;-83
2022/06/18 12:33:33;;;;;;;;;;;26.10;83.20;;;;;;4977078;28;19929;-84
2022/06/18 12:36:16;;;;;;;;;;;25.80;84.30;;;;;;4975784;28;19930;-84
2022/06/18 12:39:09;;;;;;;;;;;25.50;85.60;;;;;;4973531;28;19926;-85
2022/06/18 12:41:51;;;;;;;;;;;25.20;86.40;;;;;;4974619;28;19926;-85
2022/06/18 12:44:21;;;;;;;;;;;25.00;87.40;;;;;;4971350;28;19934;-83
2022/06/18 12:46:58;;;;;;;;;;;24.60;88.00;;;;;;4972732;28;19926;-86
2022/06/18 12:49:33;;;;;;;;;;;24.80;87.30;;;;;;4989064;28;19930;-85
2022/06/18 12:52:18;;;;;;;;;;;24.90;87.80;;;;;;4972713;28;19955;-85
2022/06/18 12:55:02;;;;;;;;;;;25.00;87.10;;;;;;4973807;28;19926;-85
2022/06/18 12:57:52;;;;;;;;;;;25.20;86.60;;;;;;4991943;28;19926;-83
2022/06/18 13:00:21;;;;;;;;;;;25.20;86.70;;;;;;4979324;28;19936;-84
2022/06/18 13:02:52;;;;;;;;;;;25.10;87.50;;;;;;4971880;28;19926;-84
2022/06/18 13:05:35;;;;;;;;;;;25.10;87.40;;;;;;4992164;28;19945;-84
2022/06/18 13:08:20;;;;;;;;;;;25.10;86.50;;;;;;4959188;28;19925;-84
2022/06/18 13:11:07;;;;;;;;;;;24.00;86.60;;;;;;4991508;28;19937;-84
2022/06/18 13:13:44;;;;;;;;;;;24.90;87.30;;;;;;4985358;28;19933;-85
2022/06/18 13:16:17;;;;;;;;;;;24.90;87.70;;;;;;4990756;28;19926;-84
2022/06/18 13:18:51;;;;;;;;;;;24.70;87.40;;;;;;4970866;28;19933;-85
2022/06/18 13:21:20;;;;;;;;;;;24.60;87.90;;;;;;4990934;28;19936;-84
2022/06/18 13:29:30;;;;;;;;;;;24.10;89.10;;;;;;5004930;28;19930;-85
2022/06/18 13:31:59;;;;;;;;;;;24.80;90.00;;;;;;5008019;28;20265;-84
2022/06/18 13:34:52;;;;;;;;;;;23.40;90.00;;;;;;4999860;28;19941;-84
2022/06/18 13:37:37;;;;;;;;;;;23.20;90.20;;;;;;4998507;28;20391;-85
2022/06/18 13:40:05;;;;;;;;;;;23.00;90.40;;;;;;4993605;28;19936;-85
2022/06/18 13:42:53;;;;;;;;;;;22.80;90.60;;;;;;4994753;28;19941;-85
2022/06/18 13:45:30;;;;;;;;;;;22.70;90.70;;;;;;4990090;28;19930;-85
2022/06/18 13:48:10;;;;;;;;;;;22.50;90.80;;;;;;4990328;28;19926;-85
2022/06/18 13:50:45;;;;;;;;;;;22.30;91.00;;;;;;4993084;28;19926;-85
2022/06/18 13:53:25;;;;;;;;;;;22.20;91.10;;;;;;4992669;28;19930;-86
2022/06/18 13:55:53;;;;;;;;;;;22.10;91.10;;;;;;4992078;28;19937;-85
2022/06/18 13:58:26;;;;;;;;;;;22.00;91.40;;;;;;4994306;28;19926;-84
2022/06/18 14:01:08;;;;;;;;;;;21.90;91.10;;;;;;4989834;28;19926;-86
2022/06/18 14:03:38;;;;;;;;;;;21.80;91.30;;;;;;4985013;28;19930;-85
2022/06/18 14:06:08;;;;;;;;;;;21.70;91.20;;;;;;4965795;28;19929;-85
2022/06/18 14:08:50;;;;;;;;;;;21.60;91.30;;;;;;4987182;28;19933;-85
2022/06/18 14:11:39;;;;;;;;;;;21.40;91.20;;;;;;4985276;28;19933;-86
2022/06/18 14:14:09;;;;;;;;;;;21.20;91.00;;;;;;4983511;28;19934;-86
2022/06/18 14:16:38;;;;;;;;;;;19.90;90.80;;;;;;4983726;28;19941;-84
2022/06/18 14:19:11;;;;;;;;;;;21.00;91.20;;;;;;4975591;28;19930;-86
2022/06/18 14:21:40;;;;;;;;;;;20.80;91.60;;;;;;4991913;28;19929;-85
2022/06/18 14:24:09;;;;;;;;;;;19.20;91.10;;;;;;4980309;28;19937;-85
2022/06/18 14:26:40;;;;;;;;;;;20.30;91.50;;;;;;4986643;28;19930;-86
2022/06/18 14:29:09;;;;;;;;;;;20.60;91.50;;;;;;4998117;28;19926;-85
2022/06/18 14:31:49;;;;;;;;;;;20.40;91.50;;;;;;4998813;28;19925;-85
2022/06/18 14:34:40;;;;;;;;;;;20.40;91.60;;;;;;4995996;28;19937;-84
2022/06/18 14:37:09;;;;;;;;;;;20.30;91.60;;;;;;4984895;28;19937;-86
2022/06/18 14:39:49;;;;;;;;;;;20.40;91.90;;;;;;4998317;28;19930;-85
2022/06/18 14:42:23;;;;;;;;;;;20.40;91.80;;;;;;4999321;28;19937;-85
2022/06/18 14:44:58;;;;;;;;;;;20.30;92.00;;;;;;4986454;28;19941;-84
2022/06/18 14:47:34;;;;;;;;;;;20.30;91.90;;;;;;4975735;28;20409;-85
2022/06/18 14:50:07;;;;;;;;;;;20.20;92.50;;;;;;4974915;28;19930;-85
2022/06/18 14:52:42;;;;;;;;;;;20.10;92.10;;;;;;4974617;28;20278;-85
2022/06/18 14:55:13;;;;;;;;;;;18.90;91.90;;;;;;4990680;28;20317;-83
2022/06/18 14:57:59;;;;;;;;;;;20.00;92.10;;;;;;4992231;28;19930;-85
2022/06/18 15:00:36;;;;;;;;;;;19.90;92.10;;;;;;4974703;28;19941;-84
2022/06/18 15:03:13;;;;;;;;;;;19.80;92.00;;;;;;4998406;28;19926;-84
2022/06/18 15:05:41;;;;;;;;;;;19.80;92.20;;;;;;4987807;28;19925;-84
2022/06/18 15:08:13;;;;;;;;;;;19.80;92.10;;;;;;4973760;28;20263;-84
2022/06/18 15:10:47;;;;;;;;;;;19.70;92.10;;;;;;4988613;28;19934;-85
2022/06/18 15:13:15;;;;;;;;;;;19.60;92.10;;;;;;4975543;28;20413;-85
2022/06/18 15:20:59;;;;;;;;;;;19.60;91.90;;;;;;4979883;28;19945;-86
2022/06/18 15:23:40;;;;;;;;;;;19.50;91.90;;;;;;4983458;28;19934;-85
2022/06/18 15:26:13;;;;;;;;;;;19.40;92.00;;;;;;4972075;28;19930;-88